createdAt,value
2019-04-07T00:01:26.207Z,11.37
2019-04-07T00:03:54.947Z,11.22
2019-04-07T00:06:24.220Z,11.02
2019-04-07T00:08:52.568Z,10.94
2019-04-07T00:11:20.861Z,10.87
2019-04-07T00:13:49.995Z,10.95
2019-04-07T00:16:18.530Z,10.78
2019-04-07T00:18:47.461Z,10.85
2019-04-07T00:21:16.831Z,10.78
2019-04-07T00:23:45.493Z,10.58
2019-04-07T00:26:14.569Z,10.46
2019-04-07T00:28:43.749Z,10.21
2019-04-07T00:31:12.228Z,10.27
2019-04-07T00:33:40.548Z,10.27
2019-04-07T00:36:09.498Z,10.56
2019-04-07T00:38:38.427Z,10.45
2019-04-07T00:41:06.891Z,10.41
2019-04-07T00:43:35.223Z,10.22
2019-04-07T00:46:03.542Z,9.92
2019-04-07T00:48:32.118Z,9.94
2019-04-07T00:51:00.436Z,9.92
2019-04-07T00:53:28.911Z,9.72
2019-04-07T00:55:57.736Z,9.68
2019-04-07T00:58:26.083Z,9.72
2019-04-07T01:00:54.338Z,9.68
2019-04-07T01:03:22.696Z,9.56
2019-04-07T01:05:51.113Z,9.57
2019-04-07T01:08:19.405Z,9.47
2019-04-07T01:10:48.074Z,9.32
2019-04-07T01:13:17.177Z,9.32
2019-04-07T01:15:46.013Z,9.55
2019-04-07T01:18:15.403Z,9.84
2019-04-07T01:20:44.002Z,10.03
2019-04-07T01:23:12.896Z,9.85
2019-04-07T01:25:42.084Z,9.93
2019-04-07T01:28:10.964Z,9.56
2019-04-07T01:30:39.301Z,9.32
2019-04-07T01:33:07.673Z,9.13
2019-04-07T01:35:45.025Z,9.10
2019-04-07T01:38:06.013Z,9.09
2019-04-07T01:40:34.237Z,9.21
2019-04-07T01:43:13.557Z,9.25
2019-04-07T01:45:43.488Z,9.23
2019-04-07T01:48:28.281Z,9.52
2019-04-07T01:50:58.225Z,9.49
2019-04-07T01:53:30.940Z,9.52
2019-04-07T01:56:03.777Z,9.28
2019-04-07T01:58:36.145Z,9.06
2019-04-07T02:01:15.735Z,9.07
2019-04-07T02:03:48.462Z,9.06
2019-04-07T02:06:18.872Z,8.71
2019-04-07T02:09:01.803Z,8.94
2019-04-07T02:11:35.047Z,9.05
2019-04-07T02:14:05.061Z,9.01
2019-04-07T02:16:50.034Z,9.01
2019-04-07T02:19:29.430Z,9.00
2019-04-07T02:22:02.319Z,8.80
2019-04-07T02:24:43.194Z,8.61
2019-04-07T02:27:28.728Z,8.88
2019-04-07T02:30:08.253Z,8.90
2019-04-07T02:32:51.082Z,9.07
2019-04-07T02:35:28.223Z,9.23
2019-04-07T02:37:58.236Z,9.46
2019-04-07T02:40:28.516Z,9.57
2019-04-07T02:42:58.850Z,9.52
2019-04-07T02:45:28.900Z,9.19
2019-04-07T02:48:05.144Z,8.88
2019-04-07T02:50:38.709Z,8.89
2019-04-07T02:53:25.256Z,8.98
2019-04-07T02:56:02.049Z,8.98
2019-04-07T02:58:32.906Z,8.61
2019-04-07T03:01:05.820Z,8.62
2019-04-07T03:03:36.840Z,8.84
2019-04-07T03:06:20.977Z,8.70
2019-04-07T03:08:44.135Z,8.84
2019-04-07T03:11:16.764Z,8.86
2019-04-07T03:13:52.434Z,8.85
2019-04-07T03:16:39.465Z,8.88
2019-04-07T03:19:13.049Z,8.86
2019-04-07T03:21:46.139Z,8.73
2019-04-07T03:24:17.457Z,9.09
2019-04-07T03:27:02.771Z,9.05
2019-04-07T03:29:38.519Z,8.95
2019-04-07T03:32:17.039Z,8.81
2019-04-07T03:34:46.887Z,8.89
2019-04-07T03:37:38.298Z,9.01
2019-04-07T03:40:04.776Z,9.08
2019-04-07T03:42:51.238Z,9.04
2019-04-07T03:45:23.643Z,9.03
2019-04-07T03:47:56.221Z,8.83
2019-04-07T03:50:26.290Z,8.90
2019-04-07T03:52:58.918Z,8.69
2019-04-07T03:55:38.514Z,9.00
2019-04-07T03:58:24.424Z,9.03
2019-04-07T04:01:11.849Z,8.85
2019-04-07T04:03:59.025Z,8.79
2019-04-07T04:06:30.079Z,8.73
2019-04-07T04:09:11.878Z,8.75
2019-04-07T04:11:59.914Z,8.89
2019-04-07T04:14:31.331Z,8.89
2019-04-07T04:17:00.111Z,9.09
2019-04-07T04:19:28.770Z,9.20
2019-04-07T04:21:58.830Z,9.13
2019-04-07T04:24:28.345Z,9.11
2019-04-07T04:26:57.435Z,8.86
2019-04-07T04:29:26.525Z,8.87
2019-04-07T04:31:55.687Z,9.03
2019-04-07T04:34:25.001Z,9.01
2019-04-07T04:36:54.485Z,9.10
2019-04-07T04:39:23.091Z,9.16
2019-04-07T04:41:52.027Z,9.18
2019-04-07T04:44:20.687Z,9.15
2019-04-07T04:46:50.002Z,9.10
2019-04-07T04:49:19.991Z,9.00
2019-04-07T04:51:49.849Z,8.71
2019-04-07T04:54:19.377Z,8.52
2019-04-07T04:56:47.716Z,8.16
2019-04-07T04:59:15.994Z,8.13
2019-04-07T05:01:45.591Z,8.08
2019-04-07T05:04:13.872Z,8.28
2019-04-07T05:06:42.335Z,8.43
2019-04-07T05:09:10.690Z,8.56
2019-04-07T05:11:38.952Z,8.68
2019-04-07T05:14:08.862Z,8.76
2019-04-07T05:16:37.281Z,8.81
2019-04-07T05:19:06.197Z,8.93
2019-04-07T05:21:34.985Z,9.08
2019-04-07T05:24:03.586Z,9.22
2019-04-07T05:26:32.522Z,9.30
2019-04-07T05:29:01.545Z,9.39
2019-04-07T05:31:30.457Z,9.57
2019-04-07T05:33:58.858Z,9.74
2019-04-07T05:36:27.728Z,9.92
2019-04-07T05:38:56.304Z,10.14
2019-04-07T05:41:25.422Z,10.16
2019-04-07T05:43:55.754Z,10.17
2019-04-07T05:46:24.074Z,10.23
2019-04-07T05:48:52.994Z,10.21
2019-04-07T05:51:22.073Z,10.22
2019-04-07T05:53:50.646Z,10.21
2019-04-07T05:56:19.744Z,10.18
2019-04-07T05:58:48.395Z,10.27
2019-04-07T06:01:21.738Z,10.29
2019-04-07T06:03:46.774Z,10.36
2019-04-07T06:06:15.000Z,10.64
2019-04-07T06:08:43.335Z,10.72
2019-04-07T06:11:11.651Z,10.70
2019-04-07T06:13:41.981Z,10.73
2019-04-07T06:16:10.434Z,10.77
2019-04-07T06:18:38.728Z,10.91
2019-04-07T06:21:07.681Z,11.04
2019-04-07T06:23:37.629Z,11.15
2019-04-07T06:26:09.277Z,11.12
2019-04-07T06:28:37.026Z,11.23
2019-04-07T06:31:06.563Z,11.35
2019-04-07T06:33:38.163Z,11.44
2019-04-07T06:36:05.621Z,11.58
2019-04-07T06:38:35.775Z,11.67
2019-04-07T06:41:04.063Z,11.82
2019-04-07T06:43:35.187Z,11.81
2019-04-07T06:46:08.217Z,11.80
2019-04-07T06:48:40.265Z,11.84
2019-04-07T06:51:10.646Z,11.98
2019-04-07T06:53:50.423Z,11.99
2019-04-07T06:56:23.208Z,12.00
2019-04-07T06:59:02.173Z,12.10
2019-04-07T07:01:43.986Z,12.13
2019-04-07T07:04:32.238Z,12.20
2019-04-07T07:07:06.312Z,12.21
2019-04-07T07:09:38.653Z,12.24
2019-04-07T07:12:31.321Z,12.22
2019-04-07T07:15:12.840Z,12.27
2019-04-07T07:17:42.838Z,12.41
2019-04-07T07:20:18.838Z,12.47
2019-04-07T07:22:55.015Z,12.59
2019-04-07T07:25:23.460Z,12.72
2019-04-07T07:27:52.306Z,12.82
2019-04-07T07:30:21.406Z,12.97
2019-04-07T07:32:49.822Z,13.09
2019-04-07T07:35:18.136Z,13.28
2019-04-07T07:37:46.658Z,13.31
2019-04-07T07:40:16.055Z,13.44
2019-04-07T07:42:45.813Z,13.56
2019-04-07T07:45:15.620Z,13.71
2019-04-07T07:47:43.915Z,13.88
2019-04-07T07:50:12.290Z,14.07
2019-04-07T07:52:40.688Z,14.12
2019-04-07T07:55:09.706Z,14.09
2019-04-07T07:57:38.203Z,14.21
2019-04-07T08:00:07.271Z,14.30
2019-04-07T08:02:36.454Z,14.42
2019-04-07T08:05:07.147Z,14.47
2019-04-07T08:07:35.915Z,14.61
2019-04-07T08:10:06.207Z,14.77
2019-04-07T08:12:35.643Z,14.89
2019-04-07T08:15:05.937Z,14.88
2019-04-07T08:17:34.299Z,15.02
2019-04-07T08:20:02.562Z,15.09
2019-04-07T08:22:36.590Z,15.23
2019-04-07T08:25:01.045Z,15.41
2019-04-07T08:27:31.199Z,15.53
2019-04-07T08:29:59.367Z,15.52
2019-04-07T08:32:30.961Z,15.58
2019-04-07T08:35:01.465Z,15.73
2019-04-07T08:37:27.716Z,15.80
2019-04-07T08:39:57.902Z,15.92
2019-04-07T08:42:26.897Z,15.99
2019-04-07T08:44:57.880Z,16.25
2019-04-07T08:47:25.833Z,16.42
2019-04-07T08:49:56.917Z,16.50
2019-04-07T08:52:24.156Z,16.57
2019-04-07T08:54:53.473Z,16.61
2019-04-07T08:57:22.574Z,16.75
2019-04-07T08:59:51.432Z,16.79
2019-04-07T09:02:20.137Z,16.72
2019-04-07T09:04:51.250Z,16.78
2019-04-07T09:07:19.409Z,16.79
2019-04-07T09:09:49.807Z,17.00
2019-04-07T09:12:18.544Z,16.98
2019-04-07T09:14:46.903Z,16.91
2019-04-07T09:17:30.981Z,16.91
2019-04-07T09:20:10.247Z,16.95
2019-04-07T09:22:39.448Z,16.88
2019-04-07T09:25:12.174Z,17.05
2019-04-07T09:27:51.110Z,17.00
2019-04-07T09:30:27.547Z,17.14
2019-04-07T09:33:03.356Z,16.95
2019-04-07T09:35:42.508Z,17.06
2019-04-07T09:38:29.408Z,16.98
2019-04-07T09:40:59.376Z,17.07
2019-04-07T09:43:45.899Z,17.00
2019-04-07T09:46:15.814Z,17.10
2019-04-07T09:48:52.749Z,17.24
2019-04-07T09:51:32.055Z,17.24
2019-04-07T09:54:05.200Z,17.33
2019-04-07T09:56:51.843Z,17.46
2019-04-07T09:59:30.841Z,17.35
2019-04-07T10:02:06.301Z,17.33
2019-04-07T10:04:42.523Z,17.65
2019-04-07T10:07:16.534Z,17.84
2019-04-07T10:10:10.809Z,17.90
2019-04-07T10:12:42.510Z,17.99
2019-04-07T10:15:12.959Z,18.06
2019-04-07T10:17:49.558Z,18.25
2019-04-07T10:20:22.106Z,18.45
2019-04-07T10:23:03.224Z,18.59
2019-04-07T10:25:33.297Z,18.60
2019-04-07T10:28:03.175Z,18.51
2019-04-07T10:30:39.889Z,18.42
2019-04-07T10:33:09.947Z,18.38
2019-04-07T10:35:40.015Z,18.64
2019-04-07T10:38:12.961Z,18.62
2019-04-07T10:40:45.415Z,18.77
2019-04-07T10:43:15.357Z,18.73
2019-04-07T10:45:53.900Z,18.55
2019-04-07T10:48:35.376Z,18.44
2019-04-07T10:51:07.997Z,18.37
2019-04-07T10:53:54.174Z,18.41
2019-04-07T10:56:27.681Z,18.71
2019-04-07T10:58:58.235Z,19.18
2019-04-07T11:01:31.123Z,19.14
2019-04-07T11:04:03.981Z,19.14
2019-04-07T11:06:36.418Z,18.60
2019-04-07T11:09:11.543Z,18.90
2019-04-07T11:11:49.080Z,19.14
2019-04-07T11:14:25.050Z,19.33
2019-04-07T11:17:01.113Z,19.23
2019-04-07T11:19:31.073Z,18.80
2019-04-07T11:22:07.861Z,18.80
2019-04-07T11:24:54.131Z,18.88
2019-04-07T11:27:33.378Z,19.14
2019-04-07T11:30:07.111Z,19.39
2019-04-07T11:32:37.121Z,19.17
2019-04-07T11:35:08.109Z,19.37
2019-04-07T11:37:50.258Z,19.19
2019-04-07T11:40:22.866Z,19.19
2019-04-07T11:42:53.432Z,18.95
2019-04-07T11:45:32.309Z,19.04
2019-04-07T11:48:02.210Z,19.35
2019-04-07T11:50:32.710Z,19.34
2019-04-07T11:53:02.610Z,19.34
2019-04-07T11:55:33.402Z,19.34
2019-04-07T11:58:13.491Z,19.52
2019-04-07T12:00:51.405Z,19.72
2019-04-07T12:03:26.060Z,19.75
2019-04-07T12:05:59.795Z,19.75
2019-04-07T12:08:36.166Z,19.81
2019-04-07T12:11:07.598Z,19.93
2019-04-07T12:13:54.308Z,20.05
2019-04-07T12:16:26.646Z,19.70
2019-04-07T12:19:03.353Z,19.91
2019-04-07T12:21:42.759Z,19.91
2019-04-07T12:24:30.644Z,19.81
2019-04-07T12:27:12.364Z,19.74
2019-04-07T12:29:44.555Z,19.75
2019-04-07T12:32:18.135Z,20.06
2019-04-07T12:35:07.394Z,19.88
2019-04-07T12:37:47.722Z,19.88
2019-04-07T12:40:34.327Z,19.74
2019-04-07T12:43:13.204Z,19.91
2019-04-07T12:45:58.109Z,19.72
2019-04-07T12:48:36.794Z,19.87
2019-04-07T12:51:07.370Z,20.26
2019-04-07T12:53:46.364Z,20.20
2019-04-07T12:56:34.104Z,20.30
2019-04-07T12:59:09.022Z,20.30
2019-04-07T13:01:51.037Z,20.54
2019-04-07T13:04:37.872Z,20.55
2019-04-07T13:07:17.115Z,20.63
2019-04-07T13:09:55.099Z,20.67
2019-04-07T13:12:30.744Z,20.97
2019-04-07T13:15:11.948Z,20.99
2019-04-07T13:17:42.175Z,21.03
2019-04-07T13:20:19.712Z,20.97
2019-04-07T13:22:55.268Z,21.00
2019-04-07T13:25:29.276Z,21.03
2019-04-07T13:28:16.313Z,20.96
2019-04-07T13:30:50.047Z,20.51
2019-04-07T13:33:20.572Z,20.22
2019-04-07T13:36:07.227Z,20.65
2019-04-07T13:38:50.149Z,20.60
2019-04-07T13:41:37.984Z,20.72
2019-04-07T13:44:13.403Z,20.91
2019-04-07T13:46:45.844Z,20.85
2019-04-07T13:49:25.158Z,20.48
2019-04-07T13:51:53.315Z,20.25
2019-04-07T13:54:23.216Z,20.11
2019-04-07T13:56:56.978Z,20.47
2019-04-07T13:59:44.872Z,20.70
2019-04-07T14:02:27.843Z,21.11
2019-04-07T14:04:59.902Z,20.90
2019-04-07T14:07:30.627Z,20.81
2019-04-07T14:10:03.623Z,20.82
2019-04-07T14:12:33.736Z,20.41
2019-04-07T14:15:21.543Z,20.74
2019-04-07T14:17:54.754Z,20.35
2019-04-07T14:20:40.462Z,20.59
2019-04-07T14:23:19.817Z,20.69
2019-04-07T14:25:52.678Z,20.35
2019-04-07T14:28:22.162Z,20.55
2019-04-07T14:31:09.334Z,20.51
2019-04-07T14:33:51.113Z,20.80
2019-04-07T14:36:23.484Z,20.47
2019-04-07T14:38:57.552Z,20.43
2019-04-07T14:41:44.410Z,20.14
2019-04-07T14:44:15.166Z,19.87
2019-04-07T14:46:54.178Z,19.66
2019-04-07T14:49:39.682Z,19.67
2019-04-07T14:52:13.376Z,19.49
2019-04-07T14:55:01.298Z,19.63
2019-04-07T14:57:40.647Z,19.49
2019-04-07T15:00:15.366Z,19.23
2019-04-07T15:02:44.434Z,19.04
2019-04-07T15:05:18.555Z,18.97
2019-04-07T15:07:48.458Z,18.97
2019-04-07T15:10:20.182Z,18.83
2019-04-07T15:13:02.002Z,18.72
2019-04-07T15:15:30.403Z,18.62
2019-04-07T15:17:59.791Z,18.76
2019-04-07T15:20:28.228Z,18.76
2019-04-07T15:22:59.294Z,18.88
2019-04-07T15:25:27.764Z,18.88
2019-04-07T15:27:58.913Z,18.79
2019-04-07T15:30:26.812Z,18.58
2019-04-07T15:32:57.802Z,18.44
2019-04-07T15:35:25.083Z,18.23
2019-04-07T15:37:53.779Z,18.23
2019-04-07T15:40:22.096Z,18.22
2019-04-07T15:42:51.166Z,18.17
2019-04-07T15:45:20.460Z,18.06
2019-04-07T15:47:51.342Z,17.96
2019-04-07T15:50:18.964Z,17.87
2019-04-07T15:52:47.394Z,17.86
2019-04-07T15:55:15.582Z,17.74
2019-04-07T15:57:44.098Z,17.66
2019-04-07T16:00:12.477Z,17.66
2019-04-07T16:02:43.062Z,17.58
2019-04-07T16:05:11.716Z,17.53
2019-04-07T16:07:41.641Z,17.41
2019-04-07T16:10:10.265Z,17.48
2019-04-07T16:12:47.342Z,17.49
2019-04-07T16:15:08.591Z,17.42
2019-04-07T16:17:37.287Z,17.36
2019-04-07T16:20:19.912Z,17.37
2019-04-07T16:22:44.205Z,17.32
2019-04-07T16:25:11.216Z,17.27
2019-04-07T16:27:39.813Z,17.18
2019-04-07T16:30:11.136Z,17.11
2019-04-07T16:32:39.438Z,17.18
2019-04-07T16:35:12.907Z,17.15
2019-04-07T16:37:40.174Z,17.11
2019-04-07T16:40:10.526Z,17.16
2019-04-07T16:42:39.246Z,17.14
2019-04-07T16:45:11.422Z,17.06
2019-04-07T16:47:38.248Z,17.10
2019-04-07T16:50:07.605Z,17.06
2019-04-07T16:52:36.474Z,17.16
2019-04-07T16:55:07.953Z,17.15
2019-04-07T16:57:36.171Z,17.12
2019-04-07T17:00:08.119Z,17.04
2019-04-07T17:02:36.362Z,17.02
2019-04-07T17:05:05.785Z,16.95
2019-04-07T17:07:34.953Z,16.91
2019-04-07T17:10:03.801Z,16.77
2019-04-07T17:12:32.425Z,16.78
2019-04-07T17:15:04.597Z,16.70
2019-04-07T17:17:31.438Z,16.64
2019-04-07T17:20:00.453Z,16.53
2019-04-07T17:22:28.942Z,16.50
2019-04-07T17:25:00.323Z,16.49
2019-04-07T17:27:27.179Z,16.38
2019-04-07T17:29:56.606Z,16.44
2019-04-07T17:32:25.738Z,16.29
2019-04-07T17:34:54.137Z,16.22
2019-04-07T17:37:25.893Z,16.20
2019-04-07T17:40:08.678Z,16.11
2019-04-07T17:42:35.934Z,16.00
2019-04-07T17:45:07.770Z,15.91
2019-04-07T17:47:38.183Z,15.95
2019-04-07T17:50:26.037Z,15.84
2019-04-07T17:52:58.114Z,15.71
2019-04-07T17:55:44.507Z,15.65
2019-04-07T17:58:16.123Z,15.58
2019-04-07T18:00:53.295Z,15.44
2019-04-07T18:03:23.674Z,15.47
2019-04-07T18:06:10.043Z,15.26
2019-04-07T18:08:45.308Z,15.26
2019-04-07T18:11:31.812Z,15.27
2019-04-07T18:14:16.991Z,15.18
2019-04-07T18:16:59.240Z,14.94
2019-04-07T18:19:36.162Z,14.84
2019-04-07T18:22:22.041Z,14.86
2019-04-07T18:25:02.137Z,14.55
2019-04-07T18:27:34.135Z,14.11
2019-04-07T18:30:05.522Z,14.02
2019-04-07T18:32:43.029Z,13.78
2019-04-07T18:35:14.121Z,13.57
2019-04-07T18:37:47.038Z,13.52
2019-04-07T18:40:33.711Z,13.53
2019-04-07T18:43:14.863Z,13.58
2019-04-07T18:45:48.044Z,13.24
2019-04-07T18:48:28.566Z,13.21
2019-04-07T18:51:11.389Z,13.16
2019-04-07T18:54:00.353Z,13.05
2019-04-07T18:56:40.468Z,12.63
2019-04-07T18:59:17.478Z,12.79
2019-04-07T19:02:11.844Z,12.71
2019-04-07T19:04:39.052Z,12.40
2019-04-07T19:07:25.642Z,12.37
2019-04-07T19:10:08.027Z,12.43
2019-04-07T19:12:33.228Z,12.53
2019-04-07T19:15:20.960Z,12.74
2019-04-07T19:17:54.632Z,12.64
2019-04-07T19:20:28.680Z,12.43
2019-04-07T19:22:58.577Z,12.29
2019-04-07T19:25:45.695Z,12.44
2019-04-07T19:28:35.787Z,12.32
2019-04-07T19:31:04.441Z,12.18
2019-04-07T19:33:37.694Z,12.26
2019-04-07T19:36:12.168Z,12.14
2019-04-07T19:38:47.480Z,12.08
2019-04-07T19:41:33.931Z,12.11
2019-04-07T19:44:08.023Z,12.11
2019-04-07T19:46:43.456Z,12.11
2019-04-07T19:49:25.516Z,12.02
2019-04-07T19:51:59.455Z,12.10
2019-04-07T19:54:34.347Z,11.89
2019-04-07T19:57:09.723Z,12.02
2019-04-07T19:59:43.041Z,12.21
2019-04-07T20:02:34.908Z,12.16
2019-04-07T20:05:04.210Z,12.03
2019-04-07T20:07:37.405Z,11.56
2019-04-07T20:10:08.837Z,11.54
2019-04-07T20:12:57.211Z,11.17
2019-04-07T20:15:43.121Z,10.88
2019-04-07T20:18:27.820Z,10.87
2019-04-07T20:21:15.911Z,10.52
2019-04-07T20:24:03.630Z,10.58
2019-04-07T20:26:38.255Z,10.69
2019-04-07T20:29:24.551Z,10.96
2019-04-07T20:32:01.192Z,11.17
2019-04-07T20:34:48.319Z,11.17
2019-04-07T20:37:23.714Z,11.20
2019-04-07T20:39:56.853Z,11.13
2019-04-07T20:42:29.443Z,11.04
2019-04-07T20:45:13.396Z,11.04
2019-04-07T20:47:40.699Z,11.19
2019-04-07T20:50:22.435Z,11.25
2019-04-07T20:53:15.460Z,11.40
2019-04-07T20:55:52.875Z,11.32
2019-04-07T20:58:28.005Z,11.61
2019-04-07T21:01:12.974Z,11.64
2019-04-07T21:03:51.623Z,11.70
2019-04-07T21:06:25.323Z,11.46
2019-04-07T21:09:03.629Z,11.49
2019-04-07T21:11:36.445Z,11.65
2019-04-07T21:14:05.726Z,11.73
2019-04-07T21:16:57.917Z,11.73
2019-04-07T21:19:29.217Z,11.71
2019-04-07T21:22:05.453Z,11.31
2019-04-07T21:24:44.261Z,11.14
2019-04-07T21:27:14.383Z,11.00
2019-04-07T21:29:59.230Z,11.13
2019-04-07T21:32:31.154Z,11.38
2019-04-07T21:35:04.435Z,11.49
2019-04-07T21:37:40.860Z,11.68
2019-04-07T21:40:19.805Z,11.43
2019-04-07T21:42:52.042Z,11.34
2019-04-07T21:45:31.620Z,11.16
2019-04-07T21:48:03.283Z,10.83
2019-04-07T21:50:33.383Z,10.60
2019-04-07T21:53:22.921Z,10.87
2019-04-07T21:55:53.722Z,11.06
2019-04-07T21:58:32.513Z,11.20
2019-04-07T22:01:07.221Z,11.14
2019-04-07T22:03:54.755Z,11.41
2019-04-07T22:06:39.717Z,11.40
2019-04-07T22:09:10.122Z,11.55
2019-04-07T22:11:37.986Z,11.55
2019-04-07T22:14:07.678Z,11.57
2019-04-07T22:16:36.369Z,11.49
2019-04-07T22:19:10.260Z,11.44
2019-04-07T22:21:34.643Z,11.46
2019-04-07T22:24:03.091Z,11.48
2019-04-07T22:26:31.736Z,11.47
2019-04-07T22:29:02.859Z,11.51
2019-04-07T22:31:31.893Z,11.33
2019-04-07T22:34:04.267Z,11.17
2019-04-07T22:36:32.122Z,11.27
2019-04-07T22:39:02.385Z,11.25
2019-04-07T22:41:31.630Z,11.27
2019-04-07T22:44:00.150Z,10.97
2019-04-07T22:46:29.063Z,10.93
2019-04-07T22:48:58.722Z,10.77
2019-04-07T22:51:27.248Z,10.67
2019-04-07T22:53:57.657Z,10.44
2019-04-07T22:56:25.675Z,10.64
2019-04-07T22:58:54.729Z,11.03
2019-04-07T23:01:23.110Z,11.17
2019-04-07T23:03:51.795Z,10.98
2019-04-07T23:06:21.051Z,10.99
2019-04-07T23:08:49.620Z,11.01
2019-04-07T23:11:18.043Z,10.96
2019-04-07T23:13:47.240Z,10.76
2019-04-07T23:16:17.458Z,10.93
2019-04-07T23:18:46.493Z,10.99
2019-04-07T23:21:15.572Z,10.86
2019-04-07T23:23:43.854Z,10.59
2019-04-07T23:26:12.114Z,10.62
2019-04-07T23:28:40.399Z,10.84
2019-04-07T23:31:09.595Z,10.46
2019-04-07T23:33:38.586Z,10.28
2019-04-07T23:36:06.843Z,10.29
2019-04-07T23:38:35.283Z,10.33
2019-04-07T23:41:03.773Z,10.28
2019-04-07T23:43:32.276Z,10.15
2019-04-07T23:46:00.729Z,10.08
2019-04-07T23:48:29.006Z,10.05
2019-04-07T23:50:58.184Z,9.99
2019-04-07T23:54:03.242Z,10.03
2019-04-07T23:56:31.562Z,9.90
2019-04-07T23:59:00.519Z,10.45
